sensor_id;sensor_type;location;lat;lon;timestamp;temperature;humidity
56256;DHT22;57229;51.432;-2.598;2022-08-01T00:00:22;17.80;99.90
56256;DHT22;57229;51.432;-2.598;2022-08-01T00:02:48;17.40;99.90
56256;DHT22;57229;51.432;-2.598;2022-08-01T00:05:14;17.80;99.90
56256;DHT22;57229;51.432;-2.598;2022-08-01T00:07:40;17.90;99.90
56256;DHT22;57229;51.432;-2.598;2022-08-01T00:10:11;17.90;99.90
56256;DHT22;57229;51.432;-2.598;2022-08-01T00:12:37;18.00;99.90
56256;DHT22;57229;51.432;-2.598;2022-08-01T00:15:05;18.00;99.90
56256;DHT22;57229;51.432;-2.598;2022-08-01T00:17:33;18.00;99.90
56256;DHT22;57229;51.432;-2.598;2022-08-01T00:19:59;18.10;99.90
56256;DHT22;57229;51.432;-2.598;2022-08-01T00:22:25;18.10;99.90
56256;DHT22;57229;51.432;-2.598;2022-08-01T00:24:50;18.20;99.70
56256;DHT22;57229;51.432;-2.598;2022-08-01T00:27:16;18.20;99.00
56256;DHT22;57229;51.432;-2.598;2022-08-01T00:29:42;18.20;99.00
56256;DHT22;57229;51.432;-2.598;2022-08-01T00:32:07;18.20;99.00
56256;DHT22;57229;51.432;-2.598;2022-08-01T00:34:33;18.30;98.30
56256;DHT22;57229;51.432;-2.598;2022-08-01T00:36:59;18.40;98.00
56256;DHT22;57229;51.432;-2.598;2022-08-01T00:39:24;18.40;97.80
56256;DHT22;57229;51.432;-2.598;2022-08-01T00:41:50;18.40;97.80
56256;DHT22;57229;51.432;-2.598;2022-08-01T00:44:16;18.30;97.90
56256;DHT22;57229;51.432;-2.598;2022-08-01T00:46:42;18.30;97.80
56256;DHT22;57229;51.432;-2.598;2022-08-01T00:49:11;18.20;97.70
56256;DHT22;57229;51.432;-2.598;2022-08-01T00:51:45;18.20;97.70
56256;DHT22;57229;51.432;-2.598;2022-08-01T00:54:12;18.10;97.80
56256;DHT22;57229;51.432;-2.598;2022-08-01T00:56:39;18.00;97.90
56256;DHT22;57229;51.432;-2.598;2022-08-01T00:59:06;17.90;98.10
56256;DHT22;57229;51.432;-2.598;2022-08-01T01:01:33;17.50;98.30
56256;DHT22;57229;51.432;-2.598;2022-08-01T01:03:58;17.80;98.20
56256;DHT22;57229;51.432;-2.598;2022-08-01T01:06:33;17.70;98.30
56256;DHT22;57229;51.432;-2.598;2022-08-01T01:09:39;17.70;98.40
56256;DHT22;57229;51.432;-2.598;2022-08-01T01:12:22;17.60;98.60
56256;DHT22;57229;51.432;-2.598;2022-08-01T01:15:04;17.60;98.50
56256;DHT22;57229;51.432;-2.598;2022-08-01T01:17:45;17.50;98.40
56256;DHT22;57229;51.432;-2.598;2022-08-01T01:20:13;17.50;98.60
56256;DHT22;57229;51.432;-2.598;2022-08-01T01:22:57;17.40;98.70
56256;DHT22;57229;51.432;-2.598;2022-08-01T01:25:45;17.30;98.90
56256;DHT22;57229;51.432;-2.598;2022-08-01T01:28:40;17.20;99.00
56256;DHT22;57229;51.432;-2.598;2022-08-01T01:31:08;17.20;99.00
56256;DHT22;57229;51.432;-2.598;2022-08-01T01:33:37;17.20;98.90
56256;DHT22;57229;51.432;-2.598;2022-08-01T01:36:08;17.10;98.70
56256;DHT22;57229;51.432;-2.598;2022-08-01T01:38:40;17.10;98.90
56256;DHT22;57229;51.432;-2.598;2022-08-01T01:41:08;17.10;98.80
56256;DHT22;57229;51.432;-2.598;2022-08-01T01:43:37;17.10;98.80
56256;DHT22;57229;51.432;-2.598;2022-08-01T01:46:04;17.10;98.90
56256;DHT22;57229;51.432;-2.598;2022-08-01T01:48:31;17.00;98.80
56256;DHT22;57229;51.432;-2.598;2022-08-01T01:50:59;16.90;98.90
56256;DHT22;57229;51.432;-2.598;2022-08-01T01:53:27;16.80;99.40
56256;DHT22;57229;51.432;-2.598;2022-08-01T01:55:55;16.70;99.60
56256;DHT22;57229;51.432;-2.598;2022-08-01T01:58:26;16.70;99.50
56256;DHT22;57229;51.432;-2.598;2022-08-01T02:00:55;16.60;99.70
56256;DHT22;57229;51.432;-2.598;2022-08-01T02:03:22;16.60;99.60
56256;DHT22;57229;51.432;-2.598;2022-08-01T02:05:51;16.60;99.70
56256;DHT22;57229;51.432;-2.598;2022-08-01T02:08:19;16.60;99.50
56256;DHT22;57229;51.432;-2.598;2022-08-01T02:10:46;16.60;99.70
56256;DHT22;57229;51.432;-2.598;2022-08-01T02:13:33;16.60;99.90
56256;DHT22;57229;51.432;-2.598;2022-08-01T02:16:01;16.70;99.60
56256;DHT22;57229;51.432;-2.598;2022-08-01T02:18:26;16.70;99.90
56256;DHT22;57229;51.432;-2.598;2022-08-01T02:20:54;16.70;99.70
56256;DHT22;57229;51.432;-2.598;2022-08-01T02:23:22;16.70;99.70
56256;DHT22;57229;51.432;-2.598;2022-08-01T02:25:50;16.70;99.70
56256;DHT22;57229;51.432;-2.598;2022-08-01T02:28:22;16.60;99.90
56256;DHT22;57229;51.432;-2.598;2022-08-01T02:30:51;16.60;99.90
56256;DHT22;57229;51.432;-2.598;2022-08-01T02:33:19;16.50;99.90
56256;DHT22;57229;51.432;-2.598;2022-08-01T02:35:50;16.50;99.90
56256;DHT22;57229;51.432;-2.598;2022-08-01T02:38:18;16.50;99.90
56256;DHT22;57229;51.432;-2.598;2022-08-01T02:40:47;16.50;99.90
56256;DHT22;57229;51.432;-2.598;2022-08-01T02:43:20;16.60;99.90
56256;DHT22;57229;51.432;-2.598;2022-08-01T02:45:51;16.70;99.90
56256;DHT22;57229;51.432;-2.598;2022-08-01T02:48:19;16.80;99.70
56256;DHT22;57229;51.432;-2.598;2022-08-01T02:50:48;16.80;99.40
56256;DHT22;57229;51.432;-2.598;2022-08-01T02:53:16;16.80;99.50
56256;DHT22;57229;51.432;-2.598;2022-08-01T02:55:44;16.80;99.90
56256;DHT22;57229;51.432;-2.598;2022-08-01T02:58:14;16.70;99.90
56256;DHT22;57229;51.432;-2.598;2022-08-01T03:00:42;16.70;99.90
56256;DHT22;57229;51.432;-2.598;2022-08-01T03:03:09;16.70;99.90
56256;DHT22;57229;51.432;-2.598;2022-08-01T03:05:36;16.60;99.90
56256;DHT22;57229;51.432;-2.598;2022-08-01T03:08:03;16.60;99.80
56256;DHT22;57229;51.432;-2.598;2022-08-01T03:10:31;16.60;99.70
56256;DHT22;57229;51.432;-2.598;2022-08-01T03:13:00;16.50;99.70
56256;DHT22;57229;51.432;-2.598;2022-08-01T03:15:27;16.50;99.60
56256;DHT22;57229;51.432;-2.598;2022-08-01T03:17:56;16.50;99.70
56256;DHT22;57229;51.432;-2.598;2022-08-01T03:20:23;16.50;99.50
56256;DHT22;57229;51.432;-2.598;2022-08-01T03:22:51;16.50;99.50
56256;DHT22;57229;51.432;-2.598;2022-08-01T03:25:18;16.50;99.90
56256;DHT22;57229;51.432;-2.598;2022-08-01T03:27:50;16.50;99.60
56256;DHT22;57229;51.432;-2.598;2022-08-01T03:30:17;16.50;99.60
56256;DHT22;57229;51.432;-2.598;2022-08-01T03:32:43;16.50;99.10
56256;DHT22;57229;51.432;-2.598;2022-08-01T03:35:09;16.50;98.80
56256;DHT22;57229;51.432;-2.598;2022-08-01T03:37:40;16.50;99.00
56256;DHT22;57229;51.432;-2.598;2022-08-01T03:40:35;16.50;98.80
56256;DHT22;57229;51.432;-2.598;2022-08-01T03:43:45;16.50;98.70
56256;DHT22;57229;51.432;-2.598;2022-08-01T03:46:19;16.50;99.20
56256;DHT22;57229;51.432;-2.598;2022-08-01T03:48:48;16.40;99.50
56256;DHT22;57229;51.432;-2.598;2022-08-01T03:51:15;16.30;99.30
56256;DHT22;57229;51.432;-2.598;2022-08-01T03:53:42;16.20;99.30
56256;DHT22;57229;51.432;-2.598;2022-08-01T03:56:10;16.20;99.20
56256;DHT22;57229;51.432;-2.598;2022-08-01T03:58:38;16.30;99.20
56256;DHT22;57229;51.432;-2.598;2022-08-01T04:01:06;16.30;99.00
56256;DHT22;57229;51.432;-2.598;2022-08-01T04:03:32;16.30;98.90
56256;DHT22;57229;51.432;-2.598;2022-08-01T04:05:58;16.40;98.80
56256;DHT22;57229;51.432;-2.598;2022-08-01T04:08:37;16.50;98.70
56256;DHT22;57229;51.432;-2.598;2022-08-01T04:11:03;16.50;98.50
56256;DHT22;57229;51.432;-2.598;2022-08-01T04:13:30;16.60;98.20
56256;DHT22;57229;51.432;-2.598;2022-08-01T04:15:56;16.60;98.10
56256;DHT22;57229;51.432;-2.598;2022-08-01T04:18:22;16.60;97.70
56256;DHT22;57229;51.432;-2.598;2022-08-01T04:20:47;16.60;97.80
56256;DHT22;57229;51.432;-2.598;2022-08-01T04:23:15;16.50;97.70
56256;DHT22;57229;51.432;-2.598;2022-08-01T04:25:42;16.40;98.10
56256;DHT22;57229;51.432;-2.598;2022-08-01T04:28:10;16.40;98.20
56256;DHT22;57229;51.432;-2.598;2022-08-01T04:30:43;16.30;98.00
56256;DHT22;57229;51.432;-2.598;2022-08-01T04:33:14;16.30;98.10
56256;DHT22;57229;51.432;-2.598;2022-08-01T04:35:44;16.40;98.40
56256;DHT22;57229;51.432;-2.598;2022-08-01T04:38:12;16.40;98.50
56256;DHT22;57229;51.432;-2.598;2022-08-01T04:40:41;16.40;97.90
56256;DHT22;57229;51.432;-2.598;2022-08-01T04:43:07;16.40;97.70
56256;DHT22;57229;51.432;-2.598;2022-08-01T04:45:34;16.40;97.60
56256;DHT22;57229;51.432;-2.598;2022-08-01T04:48:00;16.50;97.60
56256;DHT22;57229;51.432;-2.598;2022-08-01T04:50:27;16.50;97.60
56256;DHT22;57229;51.432;-2.598;2022-08-01T04:52:53;16.40;97.50
56256;DHT22;57229;51.432;-2.598;2022-08-01T04:55:19;16.40;97.70
56256;DHT22;57229;51.432;-2.598;2022-08-01T04:57:46;16.30;97.90
56256;DHT22;57229;51.432;-2.598;2022-08-01T05:00:12;16.20;98.00
56256;DHT22;57229;51.432;-2.598;2022-08-01T05:02:38;16.20;98.10
56256;DHT22;57229;51.432;-2.598;2022-08-01T05:05:04;16.20;98.40
56256;DHT22;57229;51.432;-2.598;2022-08-01T05:07:32;16.10;98.00
56256;DHT22;57229;51.432;-2.598;2022-08-01T05:09:58;16.10;98.00
56256;DHT22;57229;51.432;-2.598;2022-08-01T05:12:24;16.10;98.10
56256;DHT22;57229;51.432;-2.598;2022-08-01T05:14:50;16.10;97.80
56256;DHT22;57229;51.432;-2.598;2022-08-01T05:17:16;16.10;98.00
56256;DHT22;57229;51.432;-2.598;2022-08-01T05:19:42;16.10;98.30
56256;DHT22;57229;51.432;-2.598;2022-08-01T05:22:09;16.10;98.10
56256;DHT22;57229;51.432;-2.598;2022-08-01T05:24:37;16.10;98.30
56256;DHT22;57229;51.432;-2.598;2022-08-01T05:27:03;16.10;98.40
56256;DHT22;57229;51.432;-2.598;2022-08-01T05:29:29;16.10;98.40
56256;DHT22;57229;51.432;-2.598;2022-08-01T05:31:55;16.20;97.90
56256;DHT22;57229;51.432;-2.598;2022-08-01T05:34:21;16.20;98.00
56256;DHT22;57229;51.432;-2.598;2022-08-01T05:36:47;16.30;97.70
56256;DHT22;57229;51.432;-2.598;2022-08-01T05:39:14;16.30;97.60
56256;DHT22;57229;51.432;-2.598;2022-08-01T05:41:40;16.40;97.40
56256;DHT22;57229;51.432;-2.598;2022-08-01T05:44:06;16.50;97.20
56256;DHT22;57229;51.432;-2.598;2022-08-01T05:46:32;16.50;97.20
56256;DHT22;57229;51.432;-2.598;2022-08-01T05:49:00;16.60;97.30
56256;DHT22;57229;51.432;-2.598;2022-08-01T05:51:26;16.60;97.00
56256;DHT22;57229;51.432;-2.598;2022-08-01T05:53:52;16.80;96.90
56256;DHT22;57229;51.432;-2.598;2022-08-01T05:56:19;16.80;96.80
56256;DHT22;57229;51.432;-2.598;2022-08-01T05:58:45;16.90;96.90
56256;DHT22;57229;51.432;-2.598;2022-08-01T06:01:11;16.90;96.90
56256;DHT22;57229;51.432;-2.598;2022-08-01T06:03:37;16.90;97.10
56256;DHT22;57229;51.432;-2.598;2022-08-01T06:06:03;16.90;97.10
56256;DHT22;57229;51.432;-2.598;2022-08-01T06:08:29;17.00;96.30
56256;DHT22;57229;51.432;-2.598;2022-08-01T06:10:55;17.00;96.60
56256;DHT22;57229;51.432;-2.598;2022-08-01T06:13:21;17.10;96.30
56256;DHT22;57229;51.432;-2.598;2022-08-01T06:15:47;17.10;96.30
56256;DHT22;57229;51.432;-2.598;2022-08-01T06:18:14;17.20;96.10
56256;DHT22;57229;51.432;-2.598;2022-08-01T06:20:40;17.30;96.30
56256;DHT22;57229;51.432;-2.598;2022-08-01T06:23:06;17.40;96.00
56256;DHT22;57229;51.432;-2.598;2022-08-01T06:25:31;17.50;96.10
56256;DHT22;57229;51.432;-2.598;2022-08-01T06:27:58;17.50;95.80
56256;DHT22;57229;51.432;-2.598;2022-08-01T06:30:24;17.60;95.60
56256;DHT22;57229;51.432;-2.598;2022-08-01T06:32:50;17.70;95.50
56256;DHT22;57229;51.432;-2.598;2022-08-01T06:35:17;17.70;95.80
56256;DHT22;57229;51.432;-2.598;2022-08-01T06:37:43;17.80;95.30
56256;DHT22;57229;51.432;-2.598;2022-08-01T06:40:11;17.80;95.20
56256;DHT22;57229;51.432;-2.598;2022-08-01T06:42:37;17.90;94.90
56256;DHT22;57229;51.432;-2.598;2022-08-01T06:45:08;18.10;95.40
56256;DHT22;57229;51.432;-2.598;2022-08-01T06:47:35;18.10;94.80
56256;DHT22;57229;51.432;-2.598;2022-08-01T06:50:01;18.10;95.00
56256;DHT22;57229;51.432;-2.598;2022-08-01T06:52:26;18.20;95.40
56256;DHT22;57229;51.432;-2.598;2022-08-01T06:54:52;18.20;94.40
56256;DHT22;57229;51.432;-2.598;2022-08-01T06:57:18;18.30;93.90
56256;DHT22;57229;51.432;-2.598;2022-08-01T06:59:44;18.30;94.90
56256;DHT22;57229;51.432;-2.598;2022-08-01T07:02:10;18.50;94.20
56256;DHT22;57229;51.432;-2.598;2022-08-01T07:04:36;18.70;94.00
56256;DHT22;57229;51.432;-2.598;2022-08-01T07:07:02;18.90;93.60
56256;DHT22;57229;51.432;-2.598;2022-08-01T07:09:28;19.10;93.50
56256;DHT22;57229;51.432;-2.598;2022-08-01T07:11:54;19.20;93.20
56256;DHT22;57229;51.432;-2.598;2022-08-01T07:14:21;19.30;93.30
56256;DHT22;57229;51.432;-2.598;2022-08-01T07:16:47;19.30;93.00
56256;DHT22;57229;51.432;-2.598;2022-08-01T07:19:13;19.40;92.60
56256;DHT22;57229;51.432;-2.598;2022-08-01T07:21:39;19.30;92.60
56256;DHT22;57229;51.432;-2.598;2022-08-01T07:24:06;19.30;92.70
56256;DHT22;57229;51.432;-2.598;2022-08-01T07:26:32;19.20;93.00
56256;DHT22;57229;51.432;-2.598;2022-08-01T07:28:57;19.30;92.50
56256;DHT22;57229;51.432;-2.598;2022-08-01T07:31:23;19.30;92.70
56256;DHT22;57229;51.432;-2.598;2022-08-01T07:33:50;19.20;92.30
56256;DHT22;57229;51.432;-2.598;2022-08-01T07:36:16;19.20;92.30
56256;DHT22;57229;51.432;-2.598;2022-08-01T07:38:43;19.20;92.20
56256;DHT22;57229;51.432;-2.598;2022-08-01T07:41:10;19.20;91.90
56256;DHT22;57229;51.432;-2.598;2022-08-01T07:43:36;19.00;92.40
56256;DHT22;57229;51.432;-2.598;2022-08-01T07:46:03;19.00;92.50
56256;DHT22;57229;51.432;-2.598;2022-08-01T07:48:30;19.20;92.30
56256;DHT22;57229;51.432;-2.598;2022-08-01T07:51:23;19.30;91.70
56256;DHT22;57229;51.432;-2.598;2022-08-01T07:54:07;19.70;91.60
56256;DHT22;57229;51.432;-2.598;2022-08-01T07:56:55;20.40;91.10
56256;DHT22;57229;51.432;-2.598;2022-08-01T08:02:54;22.30;86.50
56256;DHT22;57229;51.432;-2.598;2022-08-01T08:05:27;23.00;82.70
56256;DHT22;57229;51.432;-2.598;2022-08-01T08:08:05;23.00;82.70
56256;DHT22;57229;51.432;-2.598;2022-08-01T08:11:28;22.90;82.10
56256;DHT22;57229;51.432;-2.598;2022-08-01T08:14:17;22.50;81.50
56256;DHT22;57229;51.432;-2.598;2022-08-01T08:16:54;22.00;83.60
56256;DHT22;57229;51.432;-2.598;2022-08-01T08:19:20;21.90;85.80
56256;DHT22;57229;51.432;-2.598;2022-08-01T08:21:46;21.80;84.90
56256;DHT22;57229;51.432;-2.598;2022-08-01T08:24:11;21.90;84.10
56256;DHT22;57229;51.432;-2.598;2022-08-01T08:26:56;22.00;84.20
56256;DHT22;57229;51.432;-2.598;2022-08-01T08:29:23;22.10;84.50
56256;DHT22;57229;51.432;-2.598;2022-08-01T08:31:50;22.20;82.20
56256;DHT22;57229;51.432;-2.598;2022-08-01T08:34:16;22.30;82.60
56256;DHT22;57229;51.432;-2.598;2022-08-01T08:36:42;22.60;83.20
56256;DHT22;57229;51.432;-2.598;2022-08-01T08:39:08;23.00;81.80
56256;DHT22;57229;51.432;-2.598;2022-08-01T08:41:34;23.60;81.40
56256;DHT22;57229;51.432;-2.598;2022-08-01T08:44:08;24.40;79.30
56256;DHT22;57229;51.432;-2.598;2022-08-01T08:46:40;25.20;76.60
56256;DHT22;57229;51.432;-2.598;2022-08-01T08:49:06;25.40;75.30
56256;DHT22;57229;51.432;-2.598;2022-08-01T08:51:35;25.60;75.70
56256;DHT22;57229;51.432;-2.598;2022-08-01T08:54:05;26.20;74.80
56256;DHT22;57229;51.432;-2.598;2022-08-01T08:56:31;26.70;71.80
56256;DHT22;57229;51.432;-2.598;2022-08-01T08:59:01;27.70;72.00
56256;DHT22;57229;51.432;-2.598;2022-08-01T09:01:27;28.40;69.90
56256;DHT22;57229;51.432;-2.598;2022-08-01T09:03:53;29.10;69.40
56256;DHT22;57229;51.432;-2.598;2022-08-01T09:06:20;29.20;67.50
56256;DHT22;57229;51.432;-2.598;2022-08-01T09:08:46;28.90;67.60
56256;DHT22;57229;51.432;-2.598;2022-08-01T09:11:12;28.30;66.30
56256;DHT22;57229;51.432;-2.598;2022-08-01T09:13:38;27.90;67.20
56256;DHT22;57229;51.432;-2.598;2022-08-01T09:16:05;28.00;69.50
56256;DHT22;57229;51.432;-2.598;2022-08-01T09:18:37;28.70;67.10
56256;DHT22;57229;51.432;-2.598;2022-08-01T09:23:44;30.10;64.40
56256;DHT22;57229;51.432;-2.598;2022-08-01T09:26:18;30.00;62.70
56256;DHT22;57229;51.432;-2.598;2022-08-01T09:28:45;30.00;62.80
56256;DHT22;57229;51.432;-2.598;2022-08-01T09:31:16;30.00;63.50
56256;DHT22;57229;51.432;-2.598;2022-08-01T09:33:55;30.70;60.50
56256;DHT22;57229;51.432;-2.598;2022-08-01T09:36:24;31.50;61.60
56256;DHT22;57229;51.432;-2.598;2022-08-01T09:38:52;31.50;61.40
56256;DHT22;57229;51.432;-2.598;2022-08-01T09:41:31;31.00;59.90
56256;DHT22;57229;51.432;-2.598;2022-08-01T09:43:57;31.70;59.80
56256;DHT22;57229;51.432;-2.598;2022-08-01T09:46:23;31.70;60.10
56256;DHT22;57229;51.432;-2.598;2022-08-01T09:48:56;32.00;59.40
56256;DHT22;57229;51.432;-2.598;2022-08-01T09:51:35;32.60;57.50
56256;DHT22;57229;51.432;-2.598;2022-08-01T09:54:03;32.80;58.90
56256;DHT22;57229;51.432;-2.598;2022-08-01T09:56:41;33.10;57.30
56256;DHT22;57229;51.432;-2.598;2022-08-01T09:59:08;33.50;57.30
56256;DHT22;57229;51.432;-2.598;2022-08-01T10:01:46;34.50;57.00
56256;DHT22;57229;51.432;-2.598;2022-08-01T10:04:19;34.70;55.90
56256;DHT22;57229;51.432;-2.598;2022-08-01T10:06:50;35.20;54.50
56256;DHT22;57229;51.432;-2.598;2022-08-01T10:09:29;34.20;54.40
56256;DHT22;57229;51.432;-2.598;2022-08-01T10:11:56;31.70;55.90
56256;DHT22;57229;51.432;-2.598;2022-08-01T10:14:24;30.30;58.00
56256;DHT22;57229;51.432;-2.598;2022-08-01T10:16:52;29.30;58.90
56256;DHT22;57229;51.432;-2.598;2022-08-01T10:19:21;28.40;62.20
56256;DHT22;57229;51.432;-2.598;2022-08-01T10:21:48;27.80;62.40
56256;DHT22;57229;51.432;-2.598;2022-08-01T10:24:18;27.90;62.60
56256;DHT22;57229;51.432;-2.598;2022-08-01T10:26:51;27.60;63.20
56256;DHT22;57229;51.432;-2.598;2022-08-01T10:29:18;28.40;61.40
56256;DHT22;57229;51.432;-2.598;2022-08-01T10:31:46;29.50;59.50
56256;DHT22;57229;51.432;-2.598;2022-08-01T10:34:13;30.70;58.10
56256;DHT22;57229;51.432;-2.598;2022-08-01T10:36:42;32.20;56.90
56256;DHT22;57229;51.432;-2.598;2022-08-01T10:39:10;32.60;56.50
56256;DHT22;57229;51.432;-2.598;2022-08-01T10:41:38;33.40;55.20
56256;DHT22;57229;51.432;-2.598;2022-08-01T10:44:06;33.90;53.90
56256;DHT22;57229;51.432;-2.598;2022-08-01T10:46:38;33.90;54.00
56256;DHT22;57229;51.432;-2.598;2022-08-01T10:49:10;33.10;54.80
56256;DHT22;57229;51.432;-2.598;2022-08-01T10:51:38;31.30;56.50
56256;DHT22;57229;51.432;-2.598;2022-08-01T10:54:06;30.50;58.10
56256;DHT22;57229;51.432;-2.598;2022-08-01T10:56:50;30.10;58.60
56256;DHT22;57229;51.432;-2.598;2022-08-01T10:59:27;30.20;59.10
56256;DHT22;57229;51.432;-2.598;2022-08-01T11:02:01;30.60;59.50
56256;DHT22;57229;51.432;-2.598;2022-08-01T11:07:13;31.50;57.80
56256;DHT22;57229;51.432;-2.598;2022-08-01T11:09:45;31.30;56.70
56256;DHT22;57229;51.432;-2.598;2022-08-01T11:12:17;32.20;56.10
56256;DHT22;57229;51.432;-2.598;2022-08-01T11:17:40;35.00;53.60
56256;DHT22;57229;51.432;-2.598;2022-08-01T11:20:17;36.10;52.00
56256;DHT22;57229;51.432;-2.598;2022-08-01T11:29:13;34.60;52.80
56256;DHT22;57229;51.432;-2.598;2022-08-01T11:34:53;34.60;52.40
56256;DHT22;57229;51.432;-2.598;2022-08-01T11:37:26;34.30;52.70
56256;DHT22;57229;51.432;-2.598;2022-08-01T11:40:19;34.70;52.70
56256;DHT22;57229;51.432;-2.598;2022-08-01T11:42:46;34.60;52.50
56256;DHT22;57229;51.432;-2.598;2022-08-01T11:45:12;34.00;52.60
56256;DHT22;57229;51.432;-2.598;2022-08-01T11:53:05;34.40;53.00
56256;DHT22;57229;51.432;-2.598;2022-08-01T11:55:31;35.30;53.10
56256;DHT22;57229;51.432;-2.598;2022-08-01T11:58:05;36.60;50.60
56256;DHT22;57229;51.432;-2.598;2022-08-01T12:04:08;36.20;50.00
56256;DHT22;57229;51.432;-2.598;2022-08-01T12:06:34;35.40;51.00
56256;DHT22;57229;51.432;-2.598;2022-08-01T12:09:29;34.80;51.40
56256;DHT22;57229;51.432;-2.598;2022-08-01T12:11:55;35.20;50.30
56256;DHT22;57229;51.432;-2.598;2022-08-01T12:14:21;34.70;51.00
56256;DHT22;57229;51.432;-2.598;2022-08-01T12:16:53;34.80;50.40
56256;DHT22;57229;51.432;-2.598;2022-08-01T12:19:23;34.60;50.60
56256;DHT22;57229;51.432;-2.598;2022-08-01T12:22:13;34.00;50.40
56256;DHT22;57229;51.432;-2.598;2022-08-01T12:24:41;33.30;51.30
56256;DHT22;57229;51.432;-2.598;2022-08-01T12:27:08;33.20;52.50
56256;DHT22;57229;51.432;-2.598;2022-08-01T12:29:38;33.20;52.80
56256;DHT22;57229;51.432;-2.598;2022-08-01T12:32:21;34.00;51.70
56256;DHT22;57229;51.432;-2.598;2022-08-01T12:34:48;34.20;51.50
56256;DHT22;57229;51.432;-2.598;2022-08-01T12:37:14;33.80;52.10
56256;DHT22;57229;51.432;-2.598;2022-08-01T12:39:40;34.20;51.60
56256;DHT22;57229;51.432;-2.598;2022-08-01T12:42:09;34.10;51.10
56256;DHT22;57229;51.432;-2.598;2022-08-01T12:44:38;34.00;51.20
56256;DHT22;57229;51.432;-2.598;2022-08-01T12:47:06;33.60;52.40
56256;DHT22;57229;51.432;-2.598;2022-08-01T12:49:35;33.80;52.00
56256;DHT22;57229;51.432;-2.598;2022-08-01T12:52:02;33.70;53.00
56256;DHT22;57229;51.432;-2.598;2022-08-01T12:54:28;33.20;53.70
56256;DHT22;57229;51.432;-2.598;2022-08-01T12:56:54;33.60;53.10
56256;DHT22;57229;51.432;-2.598;2022-08-01T12:59:27;34.00;51.40
56256;DHT22;57229;51.432;-2.598;2022-08-01T13:01:55;34.00;52.00
56256;DHT22;57229;51.432;-2.598;2022-08-01T13:04:22;33.20;54.00
56256;DHT22;57229;51.432;-2.598;2022-08-01T13:06:51;33.30;53.90
56256;DHT22;57229;51.432;-2.598;2022-08-01T13:09:18;32.90;53.70
56256;DHT22;57229;51.432;-2.598;2022-08-01T13:11:44;32.80;54.90
56256;DHT22;57229;51.432;-2.598;2022-08-01T13:14:26;33.00;55.30
56256;DHT22;57229;51.432;-2.598;2022-08-01T13:16:52;32.90;54.20
56256;DHT22;57229;51.432;-2.598;2022-08-01T13:19:18;32.30;54.00
56256;DHT22;57229;51.432;-2.598;2022-08-01T13:21:54;31.90;53.80
56256;DHT22;57229;51.432;-2.598;2022-08-01T13:24:28;31.80;55.20
56256;DHT22;57229;51.432;-2.598;2022-08-01T13:26:59;32.30;54.50
56256;DHT22;57229;51.432;-2.598;2022-08-01T13:29:35;32.60;54.10
56256;DHT22;57229;51.432;-2.598;2022-08-01T13:32:18;33.40;52.60
56256;DHT22;57229;51.432;-2.598;2022-08-01T13:34:44;33.30;52.50
56256;DHT22;57229;51.432;-2.598;2022-08-01T13:37:10;33.30;52.90
56256;DHT22;57229;51.432;-2.598;2022-08-01T13:39:38;33.50;53.10
56256;DHT22;57229;51.432;-2.598;2022-08-01T13:42:10;33.70;52.90
56256;DHT22;57229;51.432;-2.598;2022-08-01T13:44:36;34.50;52.60
56256;DHT22;57229;51.432;-2.598;2022-08-01T13:47:04;35.10;52.30
56256;DHT22;57229;51.432;-2.598;2022-08-01T13:49:30;35.10;51.30
56256;DHT22;57229;51.432;-2.598;2022-08-01T13:51:56;34.10;52.20
56256;DHT22;57229;51.432;-2.598;2022-08-01T13:54:22;33.30;52.60
56256;DHT22;57229;51.432;-2.598;2022-08-01T13:56:49;32.60;54.50
56256;DHT22;57229;51.432;-2.598;2022-08-01T13:59:15;32.10;57.10
56256;DHT22;57229;51.432;-2.598;2022-08-01T14:01:41;32.40;55.50
56256;DHT22;57229;51.432;-2.598;2022-08-01T14:04:07;32.60;55.90
56256;DHT22;57229;51.432;-2.598;2022-08-01T14:06:33;33.40;54.30
56256;DHT22;57229;51.432;-2.598;2022-08-01T14:08:58;32.90;55.90
56256;DHT22;57229;51.432;-2.598;2022-08-01T14:11:24;33.50;54.60
56256;DHT22;57229;51.432;-2.598;2022-08-01T14:13:50;33.70;54.20
56256;DHT22;57229;51.432;-2.598;2022-08-01T14:16:16;33.80;54.50
56256;DHT22;57229;51.432;-2.598;2022-08-01T14:21:58;32.20;56.90
56256;DHT22;57229;51.432;-2.598;2022-08-01T14:24:33;33.30;54.90
56256;DHT22;57229;51.432;-2.598;2022-08-01T14:26:59;34.00;53.80
56256;DHT22;57229;51.432;-2.598;2022-08-01T14:29:25;34.60;53.90
56256;DHT22;57229;51.432;-2.598;2022-08-01T14:31:50;35.20;52.80
56256;DHT22;57229;51.432;-2.598;2022-08-01T14:34:16;35.40;53.20
56256;DHT22;57229;51.432;-2.598;2022-08-01T14:36:43;35.40;53.10
56256;DHT22;57229;51.432;-2.598;2022-08-01T14:39:08;35.10;52.70
56256;DHT22;57229;51.432;-2.598;2022-08-01T14:41:34;35.00;52.40
56256;DHT22;57229;51.432;-2.598;2022-08-01T14:44:00;33.70;54.30
56256;DHT22;57229;51.432;-2.598;2022-08-01T14:46:26;33.60;54.80
56256;DHT22;57229;51.432;-2.598;2022-08-01T14:48:52;34.10;53.90
56256;DHT22;57229;51.432;-2.598;2022-08-01T14:51:18;34.50;53.10
56256;DHT22;57229;51.432;-2.598;2022-08-01T14:53:43;34.70;52.90
56256;DHT22;57229;51.432;-2.598;2022-08-01T14:56:09;35.30;52.40
56256;DHT22;57229;51.432;-2.598;2022-08-01T14:58:46;34.70;52.80
56256;DHT22;57229;51.432;-2.598;2022-08-01T15:01:33;34.30;53.90
56256;DHT22;57229;51.432;-2.598;2022-08-01T15:04:07;34.00;54.70
56256;DHT22;57229;51.432;-2.598;2022-08-01T15:06:35;34.20;54.10
56256;DHT22;57229;51.432;-2.598;2022-08-01T15:09:01;34.50;53.70
56256;DHT22;57229;51.432;-2.598;2022-08-01T15:11:27;34.60;54.00
56256;DHT22;57229;51.432;-2.598;2022-08-01T15:13:53;34.40;54.10
56256;DHT22;57229;51.432;-2.598;2022-08-01T15:16:39;34.40;53.90
56256;DHT22;57229;51.432;-2.598;2022-08-01T15:19:05;35.20;53.50
56256;DHT22;57229;51.432;-2.598;2022-08-01T15:21:30;35.00;53.80
56256;DHT22;57229;51.432;-2.598;2022-08-01T15:23:56;35.10;54.40
56256;DHT22;57229;51.432;-2.598;2022-08-01T15:26:28;35.60;53.50
56256;DHT22;57229;51.432;-2.598;2022-08-01T15:28:55;35.50;52.70
56256;DHT22;57229;51.432;-2.598;2022-08-01T15:31:21;35.40;53.60
56256;DHT22;57229;51.432;-2.598;2022-08-01T15:33:46;34.80;54.10
56256;DHT22;57229;51.432;-2.598;2022-08-01T15:36:12;34.70;54.00
56256;DHT22;57229;51.432;-2.598;2022-08-01T15:38:38;34.60;54.30
56256;DHT22;57229;51.432;-2.598;2022-08-01T15:41:03;34.80;53.60
56256;DHT22;57229;51.432;-2.598;2022-08-01T15:43:29;35.20;53.60
56256;DHT22;57229;51.432;-2.598;2022-08-01T15:45:55;35.60;53.20
56256;DHT22;57229;51.432;-2.598;2022-08-01T15:48:20;35.20;53.20
56256;DHT22;57229;51.432;-2.598;2022-08-01T15:50:47;35.00;53.40
56256;DHT22;57229;51.432;-2.598;2022-08-01T15:53:13;33.50;55.20
56256;DHT22;57229;51.432;-2.598;2022-08-01T15:55:40;33.60;55.00
56256;DHT22;57229;51.432;-2.598;2022-08-01T15:58:08;33.60;55.30
56256;DHT22;57229;51.432;-2.598;2022-08-01T16:00:34;33.50;55.20